Time;durP1;ratioP1;P1;durP2;ratioP2;P2;SDS_P1;SDS_P2;PMS_P1;PMS_P2;Temp;Humidity;BMP_temperature;BMP_pressure;BME280_temperature;BME280_humidity;BME280_pressure;Samples;Min_cycle;Max_cycle;Signal;HPM_P1;HPM_P2
2022/07/14 00:01:35;;;;;;;5.18;2.42;;;;;;;25.38;46.20;100790.25;4207917;28;20048;-61
2022/07/14 00:03:40;;;;;;;4.00;2.33;;;;;;;25.40;45.85;100784.88;4182626;28;20144;-61
2022/07/14 00:05:43;;;;;;;6.07;1.98;;;;;;;25.37;45.64;100782.34;4183655;28;20435;-61
2022/07/14 00:07:45;;;;;;;3.90;2.05;;;;;;;25.37;46.14;100775.22;4172816;28;20034;-61
2022/07/14 00:09:48;;;;;;;5.50;2.08;;;;;;;25.36;46.44;100778.78;4178280;28;20067;-61
2022/07/14 00:11:51;;;;;;;3.55;1.42;;;;;;;25.33;46.99;100776.25;4180602;28;20033;-61
2022/07/14 00:13:54;;;;;;;5.82;2.03;;;;;;;25.29;47.24;100779.97;4181221;28;20380;-61
2022/07/14 00:15:57;;;;;;;6.72;2.22;;;;;;;25.24;48.41;100779.28;4183355;28;20033;-61
2022/07/14 00:18:00;;;;;;;5.13;1.80;;;;;;;25.18;49.92;100779.56;4182036;28;20286;-61
2022/07/14 00:20:05;;;;;;;7.40;2.00;;;;;;;25.12;49.62;100780.69;4177827;28;20184;-61
2022/07/14 00:22:08;;;;;;;2.35;1.73;;;;;;;25.05;49.76;100780.06;4179777;28;20044;-61
2022/07/14 00:24:12;;;;;;;4.70;2.22;;;;;;;25.01;48.93;100781.09;4181909;28;20491;-61
2022/07/14 00:26:15;;;;;;;3.80;2.10;;;;;;;24.97;48.14;100779.53;4166803;28;20037;-61
2022/07/14 00:28:18;;;;;;;7.93;2.30;;;;;;;24.98;47.58;100777.72;4181405;28;20037;-61
2022/07/14 00:30:22;;;;;;;8.20;2.20;;;;;;;24.95;47.34;100773.38;4182042;28;20481;-61
2022/07/14 00:32:25;;;;;;;4.57;2.05;;;;;;;24.93;47.43;100772.59;4179388;28;20041;-61
2022/07/14 00:34:28;;;;;;;4.70;2.07;;;;;;;24.90;47.61;100772.72;4182089;28;20124;-61
2022/07/14 00:36:33;;;;;;;3.20;1.92;;;;;;;24.90;47.62;100770.06;4182209;28;20295;-61
2022/07/14 00:38:35;;;;;;;3.85;1.92;;;;;;;24.85;47.95;100761.38;4181729;28;20135;-61
2022/07/14 00:40:39;;;;;;;5.65;2.00;;;;;;;24.78;48.70;100765.22;4182997;28;20037;-61
2022/07/14 00:42:47;;;;;;;7.13;2.38;;;;;;;24.74;48.78;100764.50;4180122;28;20044;-61
2022/07/14 00:44:49;;;;;;;5.10;2.20;;;;;;;24.69;48.93;100766.44;4194767;28;20052;-61
2022/07/14 00:46:52;;;;;;;3.55;2.10;;;;;;;24.65;49.01;100759.50;4179040;28;20140;-61
2022/07/14 00:48:55;;;;;;;3.40;1.77;;;;;;;24.64;49.10;100758.66;4162257;28;20417;-61
2022/07/14 00:50:58;;;;;;;3.45;2.22;;;;;;;24.62;48.91;100760.53;4184549;28;20032;-61
2022/07/14 00:53:08;;;;;;;4.60;2.00;;;;;;;24.60;48.67;100761.50;4178934;28;20045;-61
2022/07/14 00:55:12;;;;;;;5.80;2.22;;;;;;;24.58;47.91;100757.06;4181578;28;20553;-61
2022/07/14 00:57:15;;;;;;;3.35;2.20;;;;;;;24.58;47.80;100756.22;4182835;28;20040;-61
2022/07/14 00:59:18;;;;;;;7.57;2.10;;;;;;;24.58;48.21;100754.41;4182702;28;20135;-61
2022/07/14 01:01:21;;;;;;;5.03;2.58;;;;;;;24.58;48.37;100754.41;4179082;28;20033;-61
2022/07/14 01:03:24;;;;;;;5.68;2.13;;;;;;;24.60;48.75;100745.56;4180524;28;20033;-61
2022/07/14 01:05:27;;;;;;;6.50;2.58;;;;;;;24.58;48.63;100749.09;4195952;28;20079;-61
2022/07/14 01:07:30;;;;;;;3.92;2.45;;;;;;;24.55;48.89;100743.91;4180749;28;20430;-61
2022/07/14 01:09:35;;;;;;;5.45;2.30;;;;;;;24.54;48.60;100751.94;4191876;28;20193;-61
2022/07/14 01:11:38;;;;;;;4.80;1.77;;;;;;;24.49;49.46;100748.63;4179721;28;20123;-61
2022/07/14 01:13:42;;;;;;;4.75;2.35;;;;;;;24.46;49.65;100743.41;4182101;28;20040;-61
2022/07/14 01:15:45;;;;;;;4.50;2.17;;;;;;;24.38;50.02;100749.88;4180212;28;20037;-61
2022/07/14 01:17:49;;;;;;;7.68;2.35;;;;;;;24.33;50.36;100756.31;4180862;28;20040;-61
2022/07/14 01:19:54;;;;;;;4.18;2.00;;;;;;;24.25;50.70;100759.25;4177569;28;20045;-61
2022/07/14 01:21:58;;;;;;;5.95;2.30;;;;;;;24.21;50.96;100755.84;4195733;28;20483;-61
2022/07/14 01:24:01;;;;;;;6.53;2.20;;;;;;;24.11;50.46;100751.81;4181085;28;20060;-61
2022/07/14 01:26:04;;;;;;;5.95;2.40;;;;;;;24.07;50.49;100749.34;4185682;28;20470;-61
2022/07/14 01:28:07;;;;;;;3.22;2.17;;;;;;;24.03;50.18;100748.56;4197482;28;20063;-61
2022/07/14 01:30:11;;;;;;;6.70;2.55;;;;;;;23.95;50.57;100746.22;4182355;28;20489;-61
2022/07/14 01:32:14;;;;;;;3.67;2.00;;;;;;;23.92;50.67;100754.28;4179083;28;20060;-61
2022/07/14 01:34:17;;;;;;;3.55;2.45;;;;;;;23.91;51.34;100749.03;4176929;28;20059;-61
2022/07/14 01:36:21;;;;;;;5.18;2.25;;;;;;;23.83;52.24;100744.84;4182214;28;20041;-61
2022/07/14 01:38:25;;;;;;;6.27;2.53;;;;;;;23.85;52.75;100750.09;4164426;28;20162;-61
2022/07/14 01:40:28;;;;;;;5.75;2.90;;;;;;;23.80;53.77;100744.06;4182153;28;20295;-61
2022/07/14 01:42:31;;;;;;;6.40;2.70;;;;;;;23.77;54.11;100738.88;4179987;28;20029;-61
2022/07/14 01:44:34;;;;;;;5.93;2.67;;;;;;;23.74;54.62;100744.28;4181376;28;20041;-61
2022/07/14 01:46:38;;;;;;;6.57;2.72;;;;;;;23.70;54.88;100736.44;4181325;28;20044;-61
2022/07/14 01:48:41;;;;;;;;;;;;;;;23.46;55.02;100732.88;4180543;28;20457;-61
2022/07/14 01:50:44;;;;;;;6.55;2.60;;;;;;;23.48;54.32;100722.19;4180650;28;19927;-61
2022/07/14 01:52:47;;;;;;;5.38;2.80;;;;;;;23.45;54.30;100728.50;4188137;28;20029;-61
2022/07/14 01:54:54;;;;;;;11.32;2.60;;;;;;;23.36;54.08;100734.09;4197281;28;20029;-61
2022/07/14 01:56:56;;;;;;;;;;;;;;;23.10;54.53;100737.63;4197538;28;20043;-61
2022/07/14 01:59:00;;;;;;;5.95;2.80;;;;;;;23.18;54.46;100731.16;4179288;28;19927;-60
2022/07/14 02:03:24;;;;;;;3.63;2.30;;;;;;;23.26;53.27;100733.59;4179429;28;20036;-61
2022/07/14 02:05:29;;;;;;;3.85;2.20;;;;;;;23.29;53.09;100733.47;4180331;28;20449;-61
2022/07/14 02:07:32;;;;;;;4.15;2.40;;;;;;;23.27;52.84;100735.28;4180300;28;20124;-61
2022/07/14 02:12:14;;;;;;;4.43;2.35;;;;;;;23.23;52.93;100744.31;4178891;28;20037;-61
2022/07/14 02:14:19;;;;;;;4.40;2.10;;;;;;;23.27;52.63;100729.13;4184312;28;20461;-61
2022/07/14 02:16:22;;;;;;;8.73;2.33;;;;;;;23.33;52.62;100729.81;4180403;28;20055;-61
2022/07/14 02:18:25;;;;;;;4.55;2.22;;;;;;;23.38;52.48;100734.06;4196761;28;20060;-61
2022/07/14 02:20:28;;;;;;;5.57;2.60;;;;;;;23.39;52.21;100727.84;4180329;28;20042;-60
2022/07/14 02:22:30;;;;;;;6.60;2.53;;;;;;;23.39;51.96;100722.53;4178354;28;20033;-61
2022/07/14 02:24:34;;;;;;;8.55;2.30;;;;;;;23.37;52.35;100719.09;4175065;28;20063;-61
2022/07/14 02:26:38;;;;;;;7.75;2.60;;;;;;;23.34;52.89;100720.91;4174418;28;20128;-61
2022/07/14 02:28:42;;;;;;;4.35;2.15;;;;;;;23.31;53.39;100723.66;4176490;28;20037;-61
2022/07/14 02:30:50;;;;;;;2.95;1.98;;;;;;;23.30;52.81;100721.91;4183858;28;20082;-61
2022/07/14 02:32:53;;;;;;;6.00;2.70;;;;;;;23.20;52.86;100727.59;4161928;28;20128;-61
2022/07/14 02:34:56;;;;;;;8.27;2.58;;;;;;;23.17;52.90;100724.16;4177353;28;20490;-61
2022/07/14 02:36:59;;;;;;;4.43;2.20;;;;;;;23.12;53.13;100727.88;4165462;28;20038;-61
2022/07/14 02:39:02;;;;;;;5.78;2.40;;;;;;;23.11;52.98;100719.03;4164168;28;20039;-61
2022/07/14 02:41:05;;;;;;;5.50;2.70;;;;;;;23.10;52.66;100716.41;4179314;28;20453;-61
2022/07/14 02:43:09;;;;;;;4.68;2.25;;;;;;;23.01;53.07;100733.50;4195429;28;20032;-61
2022/07/14 02:45:14;;;;;;;2.75;1.92;;;;;;;22.93;53.39;100731.09;4179019;28;20041;-61
2022/07/14 02:47:18;;;;;;;6.95;2.80;;;;;;;22.92;53.42;100726.69;4179466;28;20453;-61
2022/07/14 02:49:21;;;;;;;4.35;2.15;;;;;;;22.90;53.44;100728.56;4179562;28;20044;-61
2022/07/14 02:51:24;;;;;;;4.28;2.08;;;;;;;22.89;53.69;100726.81;4179573;28;20039;-61
2022/07/14 02:53:26;;;;;;;6.47;2.80;;;;;;;22.86;53.34;100732.22;4178876;28;20037;-61
2022/07/14 02:55:29;;;;;;;4.47;2.45;;;;;;;22.83;53.47;100732.31;4179530;28;20049;-61
2022/07/14 02:57:33;;;;;;;6.78;2.33;;;;;;;22.85;53.49;100733.13;4176962;28;20132;-61
2022/07/14 02:59:36;;;;;;;5.03;2.63;;;;;;;22.83;53.76;100729.66;4191323;28;20103;-61
2022/07/14 03:01:40;;;;;;;8.13;2.80;;;;;;;22.87;53.79;100730.41;4178671;28;20580;-61
2022/07/14 03:03:45;;;;;;;6.57;2.55;;;;;;;22.85;53.95;100738.44;4211874;28;20031;-61
2022/07/14 03:05:49;;;;;;;5.57;2.33;;;;;;;22.80;53.96;100743.03;4179565;28;20064;-61
2022/07/14 03:07:56;;;;;;;5.00;2.38;;;;;;;22.74;54.08;100745.88;4178969;28;20533;-61
2022/07/14 03:09:59;;;;;;;5.35;2.17;;;;;;;22.74;54.11;100745.88;4179407;28;20082;-61
2022/07/14 03:12:02;;;;;;;6.20;3.15;;;;;;;22.76;54.15;100744.03;4178451;28;20068;-61
2022/07/14 03:14:06;;;;;;;6.72;2.80;;;;;;;22.71;53.97;100745.97;4170978;28;20532;-61
2022/07/14 03:16:10;;;;;;;6.30;2.97;;;;;;;22.62;54.27;100747.13;4170579;28;20044;-61
2022/07/14 03:18:17;;;;;;;5.63;2.85;;;;;;;22.57;54.35;100747.25;4176817;28;20041;-61
2022/07/14 03:20:21;;;;;;;3.95;2.50;;;;;;;22.56;54.78;100752.59;4162837;28;20033;-61
2022/07/14 03:22:24;;;;;;;5.78;2.63;;;;;;;22.53;55.06;100753.59;4178533;28;20040;-60
2022/07/14 03:24:26;;;;;;;5.80;2.50;;;;;;;22.54;55.12;100751.78;4162089;28;20552;-61
2022/07/14 03:26:30;;;;;;;7.43;3.03;;;;;;;22.53;55.36;100758.00;4163144;28;20041;-61
2022/07/14 03:28:34;;;;;;;5.28;2.55;;;;;;;22.46;55.49;100746.75;4177963;28;20040;-61
2022/07/14 03:30:37;;;;;;;6.85;2.50;;;;;;;22.46;55.38;100754.69;4195207;28;20046;-61
2022/07/14 03:32:41;;;;;;;5.15;2.58;;;;;;;22.46;55.64;100746.75;4178709;28;20078;-61
2022/07/14 03:34:45;;;;;;;5.80;3.00;;;;;;;22.46;55.89;100742.31;4179237;28;20037;-61
2022/07/14 03:36:48;;;;;;;4.97;3.25;;;;;;;22.43;56.03;100745.03;4178540;28;20808;-61
2022/07/14 03:38:59;;;;;;;5.03;2.38;;;;;;;22.40;56.12;100752.19;4175664;28;20522;-61
2022/07/14 03:41:03;;;;;;;6.03;2.78;;;;;;;22.42;56.17;100750.41;4179064;28;20474;-61
2022/07/14 03:43:09;;;;;;;5.63;2.70;;;;;;;22.37;56.51;100752.31;4177498;28;20033;-61
2022/07/14 03:45:12;;;;;;;5.63;2.50;;;;;;;22.34;56.36;100758.59;4171130;28;20037;-61
2022/07/14 03:47:15;;;;;;;3.53;2.58;;;;;;;22.31;56.69;100754.19;4178864;28;20502;-61
2022/07/14 03:49:19;;;;;;;3.80;2.67;;;;;;;22.28;56.92;100748.13;4175884;28;20033;-61
2022/07/14 03:51:25;;;;;;;4.88;2.80;;;;;;;22.31;56.82;100751.56;4178731;28;20033;-61
2022/07/14 03:53:30;;;;;;;6.22;2.38;;;;;;;22.21;57.56;100754.50;4163888;28;20041;-61
2022/07/14 03:55:33;;;;;;;;;;;;;;;22.01;58.47;100744.53;4194280;28;20040;-61
2022/07/14 03:57:37;;;;;;;5.15;2.25;;;;;;;22.01;58.94;100749.81;4178046;28;19927;-61
2022/07/14 03:59:40;;;;;;;4.72;2.60;;;;;;;22.07;59.02;100747.84;4171124;28;20513;-62
2022/07/14 04:01:45;;;;;;;7.03;2.90;;;;;;;22.13;59.45;100750.28;4178012;28;20461;-62
2022/07/14 04:03:50;;;;;;;8.27;3.22;;;;;;;22.15;59.61;100744.97;4178908;28;20124;-62
2022/07/14 04:05:53;;;;;;;6.32;2.65;;;;;;;22.14;59.64;100752.03;4179113;28;20059;-62
2022/07/14 04:07:58;;;;;;;5.35;2.50;;;;;;;22.18;59.80;100752.84;4171481;28;20041;-61
2022/07/14 04:10:07;;;;;;;3.65;2.40;;;;;;;22.14;60.25;100753.84;4177796;28;20043;-62
2022/07/14 04:12:10;;;;;;;4.90;3.00;;;;;;;22.05;60.67;100747.03;4187222;28;20037;-62
2022/07/14 04:14:14;;;;;;;3.47;2.22;;;;;;;21.97;60.93;100749.88;4176504;28;20048;-62
2022/07/14 04:16:17;;;;;;;6.20;2.63;;;;;;;21.96;60.76;100750.81;4174125;28;20037;-62
2022/07/14 04:18:24;;;;;;;5.93;2.70;;;;;;;21.95;60.40;100745.56;4177393;28;20434;-62
2022/07/14 04:20:29;;;;;;;8.30;2.92;;;;;;;21.99;59.96;100747.22;4161813;28;20043;-62
2022/07/14 04:22:32;;;;;;;5.40;2.70;;;;;;;22.00;59.53;100740.13;4177611;28;20151;-62
2022/07/14 04:24:44;;;;;;;5.70;2.30;;;;;;;21.97;60.10;100739.28;4178818;28;20029;-62
2022/07/14 04:26:47;;;;;;;5.32;2.50;;;;;;;21.96;60.72;100732.28;4178330;28;20450;-62
2022/07/14 04:28:50;;;;;;;4.13;2.53;;;;;;;22.00;60.70;100729.53;4194569;28;20033;-62
2022/07/14 04:30:53;;;;;;;5.28;2.55;;;;;;;21.98;61.07;100719.00;4180055;28;20124;-62
2022/07/14 04:32:56;;;;;;;6.20;2.72;;;;;;;21.96;61.00;100721.69;4176404;28;20040;-62
2022/07/14 04:34:59;;;;;;;5.37;2.13;;;;;;;22.01;61.09;100723.34;4176463;28;20045;-62
2022/07/14 04:37:03;;;;;;;8.32;2.97;;;;;;;22.10;60.97;100725.72;4180545;28;20108;-62
2022/07/14 04:39:07;;;;;;;11.18;2.97;;;;;;;22.10;61.11;100723.06;4178019;28;20124;-62
2022/07/14 04:41:16;;;;;;;12.82;3.58;;;;;;;22.16;60.93;100727.31;4178087;28;20041;-62
2022/07/14 04:43:20;;;;;;;5.20;2.47;;;;;;;22.19;61.00;100716.63;4170457;28;20029;-62
2022/07/14 04:45:26;;;;;;;6.93;2.80;;;;;;;22.13;61.32;100713.22;4180265;28;20036;-62
2022/07/14 04:47:29;;;;;;;6.93;2.92;;;;;;;22.08;61.62;100711.66;4193950;28;20033;-62
2022/07/14 04:52:03;;;;;;;4.78;2.55;;;;;;;22.01;61.45;100703.00;4180066;28;20407;-61
2022/07/14 04:54:17;;;;;;;5.80;2.58;;;;;;;22.04;61.48;100702.06;4181519;28;20112;-61
2022/07/14 04:56:28;;;;;;;5.25;2.28;;;;;;;22.12;61.36;100711.50;4180839;28;20041;-62
2022/07/14 04:58:44;;;;;;;5.85;2.65;;;;;;;22.12;61.43;100705.31;4184588;28;20041;-62
2022/07/14 05:00:47;;;;;;;4.07;2.42;;;;;;;22.10;61.70;100701.88;4181208;28;20352;-62
2022/07/14 05:02:50;;;;;;;7.32;2.60;;;;;;;22.10;61.89;100704.53;4179207;28;20537;-62
2022/07/14 05:04:53;;;;;;;7.15;2.45;;;;;;;22.16;61.90;100698.19;4184602;28;20033;-62
2022/07/14 05:06:56;;;;;;;5.93;3.20;;;;;;;22.24;61.83;100697.03;4191401;28;20041;-62
2022/07/14 05:09:00;;;;;;;4.47;2.15;;;;;;;22.28;61.36;100689.84;4180601;28;20041;-62
2022/07/14 05:11:05;;;;;;;6.75;2.20;;;;;;;22.33;60.59;100692.38;4164130;28;20176;-61
2022/07/14 05:13:09;;;;;;;6.10;2.30;;;;;;;22.36;59.48;100692.31;4181092;28;20043;-62
2022/07/14 05:15:13;;;;;;;4.05;2.25;;;;;;;22.34;59.03;100707.38;4181437;28;20037;-62
2022/07/14 05:17:16;;;;;;;8.32;2.67;;;;;;;22.44;58.46;100714.13;4179596;28;20043;-62
2022/07/14 05:19:30;;;;;;;;;;;;;;;22.17;59.15;100723.75;4181378;28;20437;-62
2022/07/14 05:21:34;;;;;;;3.83;2.05;;;;;;;22.16;59.30;100733.47;4186160;28;19920;-62
2022/07/14 05:23:37;;;;;;;7.00;2.35;;;;;;;22.21;59.44;100731.56;4180877;28;20044;-62
2022/07/14 05:25:40;;;;;;;7.72;2.47;;;;;;;22.27;59.28;100734.00;4164622;28;20099;-62
2022/07/14 05:27:44;;;;;;;8.07;2.65;;;;;;;22.24;59.69;100742.06;4191974;28;20040;-62
2022/07/14 05:29:59;;;;;;;4.17;2.67;;;;;;;22.22;60.05;100743.00;4195249;28;20042;-62
2022/07/14 05:32:02;;;;;;;4.10;2.00;;;;;;;22.20;60.40;100745.69;4179612;28;20037;-62
2022/07/14 05:34:07;;;;;;;4.70;2.33;;;;;;;22.19;60.80;100735.16;4179907;28;20056;-62
2022/07/14 05:36:10;;;;;;;4.88;1.90;;;;;;;22.23;60.58;100736.81;4181046;28;20485;-62
2022/07/14 05:38:13;;;;;;;6.45;1.92;;;;;;;22.25;60.74;100722.63;4180463;28;20037;-61
2022/07/14 05:40:16;;;;;;;7.53;2.25;;;;;;;22.31;60.50;100738.31;4162867;28;20041;-62
2022/07/14 05:42:21;;;;;;;3.40;2.03;;;;;;;22.32;60.51;100731.25;4179367;28;20033;-62
2022/07/14 05:44:25;;;;;;;;;;;;;;;22.23;61.12;100734.16;4181388;28;20422;-62
2022/07/14 05:46:31;;;;;;;4.97;2.10;;;;;;;22.29;60.63;100737.47;4180655;28;20007;-62
2022/07/14 05:48:34;;;;;;;5.80;2.13;;;;;;;22.41;60.57;100736.25;4174168;28;20041;-62
2022/07/14 05:50:38;;;;;;;5.50;1.80;;;;;;;22.43;60.54;100741.53;4180732;28;20124;-62
2022/07/14 05:52:42;;;;;;;8.15;2.50;;;;;;;22.45;60.47;100734.41;4179867;28;20044;-62
2022/07/14 05:54:45;;;;;;;;;;;;;;;22.36;59.73;100734.69;4181344;28;20036;-58
2022/07/14 05:57:15;;;;;;;4.05;1.52;;;;;;;22.73;58.91;100730.88;4196799;28;20413;-59
2022/07/14 05:59:19;;;;;;;5.70;1.67;;;;;;;22.98;57.96;100723.00;4187410;28;20044;-58
2022/07/14 06:01:43;;;;;;;4.43;1.58;;;;;;;23.21;57.29;100714.28;4191275;28;20040;-59
2022/07/14 06:03:52;;;;;;;1.70;1.33;;;;;;;23.35;56.63;100717.34;4194618;28;20487;-59
2022/07/14 06:05:55;;;;;;;5.90;1.77;;;;;;;23.52;55.99;100722.06;4177673;28;20106;-59
2022/07/14 06:07:58;;;;;;;3.03;1.77;;;;;;;23.69;55.74;100715.28;4190112;28;20490;-58
2022/07/14 06:10:03;;;;;;;5.05;2.15;;;;;;;23.85;55.24;100718.22;4191608;28;20033;-58
2022/07/14 06:12:07;;;;;;;5.22;1.98;;;;;;;23.93;54.63;100708.19;4173617;28;20103;-59
2022/07/14 06:14:13;;;;;;;9.13;2.17;;;;;;;23.94;54.67;100704.63;4189416;28;20514;-58
2022/07/14 06:16:17;;;;;;;6.57;1.88;;;;;;;23.95;54.17;100705.53;4205786;28;20044;-58
2022/07/14 06:18:21;;;;;;;10.38;2.55;;;;;;;23.94;54.34;100704.63;4189585;28;20040;-60
2022/07/14 06:20:25;;;;;;;7.68;2.30;;;;;;;23.84;54.76;100708.53;4196830;28;20115;-60
2022/07/14 06:22:28;;;;;;;5.20;1.90;;;;;;;23.82;54.95;100713.91;4194668;28;20436;-60
2022/07/14 06:24:31;;;;;;;3.05;2.05;;;;;;;23.88;55.09;100711.03;4195694;28;20461;-60
2022/07/14 06:26:35;;;;;;;5.57;2.42;;;;;;;23.86;54.96;100712.91;4195814;28;20044;-60
2022/07/14 06:28:39;;;;;;;6.78;2.60;;;;;;;23.72;55.04;100699.22;4194519;28;20032;-60
2022/07/14 06:30:42;;;;;;;5.35;2.05;;;;;;;23.66;54.81;100716.25;4192190;28;20043;-60
2022/07/14 06:32:45;;;;;;;5.20;2.37;;;;;;;23.67;55.03;100717.09;4195002;28;20132;-60
2022/07/14 06:34:52;;;;;;;5.35;2.22;;;;;;;23.74;55.27;100720.41;4196409;28;20040;-60
2022/07/14 06:36:57;;;;;;;8.55;2.88;;;;;;;23.77;55.23;100720.28;4196669;28;20098;-60
2022/07/14 06:39:00;;;;;;;6.35;2.20;;;;;;;23.79;54.72;100718.47;4196298;28;20047;-60
2022/07/14 06:41:05;;;;;;;6.50;3.30;;;;;;;23.82;54.73;100713.91;4187289;28;20036;-60
2022/07/14 06:43:15;;;;;;;9.45;2.60;;;;;;;23.84;54.54;100714.69;4184867;28;20044;-60
2022/07/14 06:45:33;;;;;;;6.78;2.67;;;;;;;23.91;54.44;100722.50;4192422;28;20501;-60
2022/07/14 06:47:37;;;;;;;;;;;;;;;23.89;54.54;100714.56;4183422;28;20045;-59
2022/07/14 06:49:39;;;;;;;6.28;2.85;;;;;;;24.14;54.23;100711.84;4192142;28;19920;-59
2022/07/14 06:51:44;;;;;;;5.43;2.30;;;;;;;24.34;53.79;100707.53;4187121;28;20123;-60
2022/07/14 06:53:47;;;;;;;6.07;2.90;;;;;;;24.31;52.97;100715.63;4179712;28;20580;-63
2022/07/14 06:55:50;;;;;;;10.05;3.40;;;;;;;24.30;52.88;100717.44;4210792;28;20040;-63
2022/07/14 06:57:53;;;;;;;8.05;3.05;;;;;;;24.33;52.99;100712.00;4179924;28;20123;-62
2022/07/14 07:00:05;;;;;;;5.25;2.20;;;;;;;24.29;53.63;100706.88;4195226;28;20390;-62
2022/07/14 07:02:08;;;;;;;11.52;3.05;;;;;;;24.25;54.26;100714.09;4195165;28;20447;-63
2022/07/14 07:04:11;;;;;;;5.55;2.33;;;;;;;24.22;54.23;100714.19;4186408;28;20044;-63
2022/07/14 07:08:35;;;;;;;7.93;3.25;;;;;;;24.14;54.07;100711.00;4172586;28;20044;-61
2022/07/14 07:10:40;;;;;;;;;;;;;;;24.01;54.71;100703.47;4180822;28;20048;-57
2022/07/14 07:12:44;;;;;;;7.32;2.92;;;;;;;24.13;54.61;100709.25;4190821;28;19974;-59
2022/07/14 07:14:47;;;;;;;6.18;2.60;;;;;;;24.30;54.19;100705.94;4191525;28;20131;-59
2022/07/14 07:16:51;;;;;;;5.97;2.88;;;;;;;24.44;53.77;100702.75;4197151;28;20029;-58
2022/07/14 07:18:53;;;;;;;4.78;2.42;;;;;;;24.56;53.52;100699.56;4188853;28;20509;-58
2022/07/14 07:20:57;;;;;;;9.10;3.25;;;;;;;24.69;53.18;100694.66;4197124;28;20123;-56
2022/07/14 07:22:59;;;;;;;8.82;3.65;;;;;;;24.73;52.28;100694.47;4191571;28;20513;-57
2022/07/14 07:25:04;;;;;;;8.95;3.28;;;;;;;24.80;52.31;100699.56;4191587;28;20039;-56
2022/07/14 07:27:07;;;;;;;9.50;2.97;;;;;;;24.83;52.31;100699.44;4187754;28;20425;-57
2022/07/14 07:29:10;;;;;;;9.40;3.35;;;;;;;24.87;51.91;100695.72;4196627;28;20446;-56
2022/07/14 07:31:13;;;;;;;8.63;4.05;;;;;;;24.89;51.73;100689.38;4195469;28;20135;-58
2022/07/14 07:33:17;;;;;;;8.70;3.90;;;;;;;24.94;51.74;100683.91;4188020;28;20111;-59
2022/07/14 07:35:20;;;;;;;9.48;3.45;;;;;;;25.00;51.46;100691.59;4190180;28;20037;-57
2022/07/14 07:37:23;;;;;;;10.43;4.30;;;;;;;24.99;51.77;100689.88;4193626;28;20045;-58
2022/07/14 07:39:29;;;;;;;8.90;3.75;;;;;;;25.00;51.57;100691.59;4186470;28;20044;-57
2022/07/14 07:41:34;;;;;;;9.07;3.38;;;;;;;25.02;51.60;100680.91;4174368;28;20252;-57
2022/07/14 07:43:37;;;;;;;8.25;3.47;;;;;;;25.10;51.53;100673.44;4175048;28;20050;-54
2022/07/14 07:45:40;;;;;;;8.10;3.30;;;;;;;25.05;51.85;100675.44;4196215;28;20087;-55
2022/07/14 07:47:42;;;;;;;8.95;3.47;;;;;;;25.19;51.57;100675.72;4190556;28;20041;-53
2022/07/14 07:49:45;;;;;;;8.38;3.20;;;;;;;25.21;50.39;100673.00;4191360;28;20041;-55
2022/07/14 07:51:48;;;;;;;13.75;4.93;;;;;;;25.30;48.88;100672.56;4195695;28;20058;-54
2022/07/14 07:53:51;;;;;;;8.65;3.60;;;;;;;25.31;49.29;100665.50;4188708;28;20537;-55
2022/07/14 07:55:54;;;;;;;12.98;3.85;;;;;;;25.25;49.80;100671.94;4186549;28;20041;-53
2022/07/14 07:57:59;;;;;;;14.32;3.80;;;;;;;25.36;49.65;100677.66;4192090;28;20045;-56
2022/07/14 08:00:03;;;;;;;8.70;3.75;;;;;;;25.37;49.33;100668.75;4193226;28;20043;-54
2022/07/14 08:02:14;;;;;;;14.60;4.65;;;;;;;25.46;48.93;100670.13;4192379;28;20486;-56
2022/07/14 08:04:17;;;;;;;15.07;4.72;;;;;;;25.59;48.26;100668.66;4197995;28;20048;-55
2022/07/14 08:06:20;;;;;;;17.23;4.30;;;;;;;25.66;47.75;100665.72;4194074;28;20064;-58
2022/07/14 08:08:41;;;;;;;10.80;4.05;;;;;;;25.39;48.38;100663.34;4183804;28;21108;-56
2022/07/14 08:10:44;;;;;;;13.50;4.72;;;;;;;25.48;48.24;100662.09;4187419;28;20037;-54
2022/07/14 08:12:47;;;;;;;9.70;3.65;;;;;;;25.47;48.44;100665.69;4188451;28;20119;-56
2022/07/14 08:14:52;;;;;;;8.38;2.92;;;;;;;25.44;49.03;100670.22;4192252;28;20098;-55
2022/07/14 08:16:55;;;;;;;10.50;3.80;;;;;;;25.68;48.55;100666.50;4186188;28;20028;-57
2022/07/14 08:18:58;;;;;;;21.98;4.65;;;;;;;25.69;47.85;100662.94;4169411;28;20123;-59
2022/07/14 08:21:02;;;;;;;15.10;4.63;;;;;;;25.71;47.91;100661.91;4195228;28;20176;-59
2022/07/14 08:23:05;;;;;;;14.25;3.88;;;;;;;25.75;47.52;100655.50;4183407;28;20041;-59
2022/07/14 08:25:10;;;;;;;10.07;3.37;;;;;;;25.73;47.97;100660.03;4188128;28;20128;-56
2022/07/14 08:27:13;;;;;;;5.93;2.90;;;;;;;25.82;48.23;100653.44;4186664;28;20033;-58
2022/07/14 08:29:16;;;;;;;8.60;3.70;;;;;;;25.92;47.51;100654.72;4187445;28;20041;-60
2022/07/14 08:31:21;;;;;;;8.25;3.05;;;;;;;25.96;47.42;100660.75;4187995;28;20041;-60
2022/07/14 08:33:24;;;;;;;4.70;2.60;;;;;;;25.97;47.50;100659.84;4184647;28;20094;-58
2022/07/14 08:35:27;;;;;;;6.38;2.72;;;;;;;25.96;47.46;100651.00;4193811;28;20050;-58
2022/07/14 08:37:30;;;;;;;9.18;3.60;;;;;;;26.00;47.40;100645.53;4192383;28;20046;-58
2022/07/14 08:39:38;;;;;;;11.55;3.47;;;;;;;26.18;45.63;100647.34;4194326;28;20144;-59
2022/07/14 08:41:42;;;;;;;10.93;3.20;;;;;;;26.22;43.99;100650.72;4192609;28;20328;-58
2022/07/14 08:43:46;;;;;;;7.47;2.90;;;;;;;26.42;43.79;100647.09;4197098;28;20037;-58
2022/07/14 08:45:51;;;;;;;6.03;3.17;;;;;;;26.52;42.74;100642.13;4196822;28;20068;-58
2022/07/14 08:47:56;;;;;;;5.80;2.90;;;;;;;26.57;42.28;100640.13;4196815;28;20286;-57
2022/07/14 08:50:00;;;;;;;8.30;3.15;;;;;;;26.36;42.88;100642.06;4193364;28;20074;-57
2022/07/14 08:52:06;;;;;;;7.57;2.90;;;;;;;26.30;42.26;100643.22;4198423;28;20474;-58
2022/07/14 08:54:10;;;;;;;5.25;2.78;;;;;;;26.13;43.77;100644.88;4192603;28;20051;-59
2022/07/14 08:56:13;;;;;;;8.25;2.60;;;;;;;26.16;43.82;100635.88;4198106;28;20060;-59
2022/07/14 08:58:15;;;;;;;6.18;2.85;;;;;;;26.34;44.28;100647.44;4192962;28;20044;-59
2022/07/14 09:00:20;;;;;;;9.23;3.28;;;;;;;26.56;42.76;100641.03;4198856;28;20042;-59
2022/07/14 09:02:23;;;;;;;7.20;2.58;;;;;;;26.56;42.56;100639.25;4197004;28;20082;-59
2022/07/14 09:04:27;;;;;;;5.45;2.42;;;;;;;26.66;42.70;100626.31;4197312;28;20041;-58
2022/07/14 09:06:47;;;;;;;8.23;2.80;;;;;;;26.70;42.59;100627.91;4179765;28;20330;-57
2022/07/14 09:08:57;;;;;;;6.40;2.67;;;;;;;26.80;42.42;100631.84;4193185;28;20127;-58
2022/07/14 09:11:01;;;;;;;4.78;2.22;;;;;;;26.89;42.62;100633.19;4195381;28;20044;-57
2022/07/14 09:13:12;;;;;;;8.38;2.30;;;;;;;26.81;41.95;100636.25;4189106;28;20032;-59
2022/07/14 09:17:36;;;;;;;3.72;2.17;;;;;;;26.83;41.84;100625.50;4201998;28;20075;-57
2022/07/14 09:20:08;;;;;;;6.65;2.88;;;;;;;26.99;41.34;100629.09;4192370;28;20033;-57
2022/07/14 09:22:11;;;;;;;5.05;2.20;;;;;;;27.07;41.60;100615.38;4196509;28;20078;-58
2022/07/14 09:24:15;;;;;;;5.68;2.35;;;;;;;27.18;41.12;100618.31;4194893;28;20502;-58
2022/07/14 09:26:19;;;;;;;5.60;2.10;;;;;;;27.13;41.54;100619.50;4188243;28;20032;-57
2022/07/14 09:28:26;;;;;;;8.50;2.30;;;;;;;27.12;41.64;100613.31;4193357;28;20110;-61
2022/07/14 09:30:29;;;;;;;5.72;2.10;;;;;;;27.17;41.39;100618.41;4194421;28;20128;-61
2022/07/14 09:32:46;;;;;;;11.00;2.80;;;;;;;27.13;41.45;100616.81;4197059;28;20143;-61
2022/07/14 09:35:00;;;;;;;9.40;2.38;;;;;;;27.12;42.20;100620.47;4182980;28;20066;-61
2022/07/14 09:37:14;;;;;;;8.60;2.65;;;;;;;27.31;41.08;100607.84;4200486;28;20432;-60
2022/07/14 09:39:18;;;;;;;6.57;2.97;;;;;;;27.65;39.69;100613.22;4194851;28;20048;-60
2022/07/14 09:41:20;;;;;;;8.70;2.50;;;;;;;27.52;40.60;100603.22;4227626;28;20036;-60
2022/07/14 09:43:23;;;;;;;7.38;2.80;;;;;;;27.55;40.76;100598.63;4207642;28;20127;-61
2022/07/14 09:45:29;;;;;;;9.50;2.72;;;;;;;27.68;40.77;100597.00;4215893;28;20050;-62
2022/07/14 09:47:32;;;;;;;8.40;2.20;;;;;;;27.65;40.00;100600.69;4206691;28;20123;-61
2022/07/14 09:49:37;;;;;;;7.63;2.67;;;;;;;27.56;40.11;100613.72;4192880;28;20045;-60
2022/07/14 09:52:03;;;;;;;14.80;2.70;;;;;;;27.56;41.06;100597.69;4202822;28;20048;-61
2022/07/14 09:54:06;;;;;;;8.45;2.92;;;;;;;27.73;39.38;100594.06;4202571;28;20052;-61